sensor_id;sensor_type;location;lat;lon;timestamp;temperature;humidity
60848;DHT22;46681;47.696;9.140;2023-11-19T00:02:08;12.70;57.10
60848;DHT22;46681;47.696;9.140;2023-11-19T00:04:40;12.70;57.10
60848;DHT22;46681;47.696;9.140;2023-11-19T00:07:06;12.70;57.10
60848;DHT22;46681;47.696;9.140;2023-11-19T00:09:31;12.70;57.10
60848;DHT22;46681;47.696;9.140;2023-11-19T00:11:57;12.80;57.10
60848;DHT22;46681;47.696;9.140;2023-11-19T00:14:22;12.80;57.10
60848;DHT22;46681;47.696;9.140;2023-11-19T00:16:48;12.80;57.10
60848;DHT22;46681;47.696;9.140;2023-11-19T00:19:13;12.80;57.10
60848;DHT22;46681;47.696;9.140;2023-11-19T00:21:38;12.80;57.10
60848;DHT22;46681;47.696;9.140;2023-11-19T00:24:04;12.70;57.10
60848;DHT22;46681;47.696;9.140;2023-11-19T00:26:30;12.80;57.30
60848;DHT22;46681;47.696;9.140;2023-11-19T00:28:55;12.70;57.30
60848;DHT22;46681;47.696;9.140;2023-11-19T00:31:26;12.70;57.30
60848;DHT22;46681;47.696;9.140;2023-11-19T00:33:51;12.80;57.30
60848;DHT22;46681;47.696;9.140;2023-11-19T00:36:17;12.80;57.30
60848;DHT22;46681;47.696;9.140;2023-11-19T00:38:42;12.80;57.30
60848;DHT22;46681;47.696;9.140;2023-11-19T00:41:08;12.80;57.30
60848;DHT22;46681;47.696;9.140;2023-11-19T00:43:33;12.80;57.30
60848;DHT22;46681;47.696;9.140;2023-11-19T00:45:59;12.80;57.20
60848;DHT22;46681;47.696;9.140;2023-11-19T00:48:24;12.80;57.30
60848;DHT22;46681;47.696;9.140;2023-11-19T00:50:50;12.80;57.30
60848;DHT22;46681;47.696;9.140;2023-11-19T00:53:15;12.80;57.40
60848;DHT22;46681;47.696;9.140;2023-11-19T00:55:41;12.80;57.50
60848;DHT22;46681;47.696;9.140;2023-11-19T00:58:06;12.80;57.50
60848;DHT22;46681;47.696;9.140;2023-11-19T01:00:32;12.80;57.50
60848;DHT22;46681;47.696;9.140;2023-11-19T01:02:57;12.80;57.50
60848;DHT22;46681;47.696;9.140;2023-11-19T01:05:23;12.90;57.50
60848;DHT22;46681;47.696;9.140;2023-11-19T01:07:49;12.80;57.50
60848;DHT22;46681;47.696;9.140;2023-11-19T01:10:15;12.90;57.50
60848;DHT22;46681;47.696;9.140;2023-11-19T01:12:40;12.90;57.50
60848;DHT22;46681;47.696;9.140;2023-11-19T01:15:06;12.90;57.40
60848;DHT22;46681;47.696;9.140;2023-11-19T01:17:31;12.90;57.40
60848;DHT22;46681;47.696;9.140;2023-11-19T01:20:00;12.90;57.40
60848;DHT22;46681;47.696;9.140;2023-11-19T01:22:25;12.90;57.40
60848;DHT22;46681;47.696;9.140;2023-11-19T01:24:51;13.00;57.50
60848;DHT22;46681;47.696;9.140;2023-11-19T01:27:16;12.90;57.50
60848;DHT22;46681;47.696;9.140;2023-11-19T01:29:42;12.90;57.60
60848;DHT22;46681;47.696;9.140;2023-11-19T01:32:07;12.90;57.60
60848;DHT22;46681;47.696;9.140;2023-11-19T01:34:35;12.90;57.70
60848;DHT22;46681;47.696;9.140;2023-11-19T01:37:04;12.90;57.70
60848;DHT22;46681;47.696;9.140;2023-11-19T01:39:29;12.90;57.70
60848;DHT22;46681;47.696;9.140;2023-11-19T01:41:55;12.90;57.70
60848;DHT22;46681;47.696;9.140;2023-11-19T01:44:20;12.90;57.60
60848;DHT22;46681;47.696;9.140;2023-11-19T01:46:46;13.00;57.70
60848;DHT22;46681;47.696;9.140;2023-11-19T01:49:14;13.00;57.60
60848;DHT22;46681;47.696;9.140;2023-11-19T01:51:40;13.00;57.60
60848;DHT22;46681;47.696;9.140;2023-11-19T01:54:08;13.00;57.60
60848;DHT22;46681;47.696;9.140;2023-11-19T01:56:34;13.00;57.60
60848;DHT22;46681;47.696;9.140;2023-11-19T01:59:00;13.00;57.70
60848;DHT22;46681;47.696;9.140;2023-11-19T02:01:30;13.00;57.70
60848;DHT22;46681;47.696;9.140;2023-11-19T02:03:57;12.90;57.70
60848;DHT22;46681;47.696;9.140;2023-11-19T02:06:23;12.90;57.80
60848;DHT22;46681;47.696;9.140;2023-11-19T02:08:49;12.90;57.80
60848;DHT22;46681;47.696;9.140;2023-11-19T02:11:15;13.00;57.80
60848;DHT22;46681;47.696;9.140;2023-11-19T02:13:41;13.00;57.80
60848;DHT22;46681;47.696;9.140;2023-11-19T02:16:07;13.00;57.80
60848;DHT22;46681;47.696;9.140;2023-11-19T02:18:34;13.00;57.70
60848;DHT22;46681;47.696;9.140;2023-11-19T02:21:00;13.00;57.80
60848;DHT22;46681;47.696;9.140;2023-11-19T02:23:29;13.00;57.80
60848;DHT22;46681;47.696;9.140;2023-11-19T02:28:47;13.10;58.20
60848;DHT22;46681;47.696;9.140;2023-11-19T02:31:13;13.10;57.80
60848;DHT22;46681;47.696;9.140;2023-11-19T02:33:39;13.00;57.80
60848;DHT22;46681;47.696;9.140;2023-11-19T02:36:05;13.00;57.90
60848;DHT22;46681;47.696;9.140;2023-11-19T02:38:31;13.00;58.00
60848;DHT22;46681;47.696;9.140;2023-11-19T02:40:57;13.00;58.00
60848;DHT22;46681;47.696;9.140;2023-11-19T02:43:22;13.00;58.40
60848;DHT22;46681;47.696;9.140;2023-11-19T02:45:50;13.00;58.10
60848;DHT22;46681;47.696;9.140;2023-11-19T02:48:15;13.00;58.10
60848;DHT22;46681;47.696;9.140;2023-11-19T02:50:42;13.00;58.10
60848;DHT22;46681;47.696;9.140;2023-11-19T02:53:07;13.00;58.00
60848;DHT22;46681;47.696;9.140;2023-11-19T02:55:33;13.10;58.00
60848;DHT22;46681;47.696;9.140;2023-11-19T02:58:01;13.10;58.00
60848;DHT22;46681;47.696;9.140;2023-11-19T03:00:27;13.10;58.00
60848;DHT22;46681;47.696;9.140;2023-11-19T03:02:52;13.10;58.10
60848;DHT22;46681;47.696;9.140;2023-11-19T03:05:18;13.00;58.10
60848;DHT22;46681;47.696;9.140;2023-11-19T03:07:44;13.00;58.10
60848;DHT22;46681;47.696;9.140;2023-11-19T03:10:10;13.00;58.20
60848;DHT22;46681;47.696;9.140;2023-11-19T03:12:36;13.00;58.20
60848;DHT22;46681;47.696;9.140;2023-11-19T03:15:08;13.00;58.20
60848;DHT22;46681;47.696;9.140;2023-11-19T03:17:34;13.00;58.30
60848;DHT22;46681;47.696;9.140;2023-11-19T03:20:00;13.10;58.30
60848;DHT22;46681;47.696;9.140;2023-11-19T03:22:26;13.10;58.30
60848;DHT22;46681;47.696;9.140;2023-11-19T03:24:55;13.00;58.30
60848;DHT22;46681;47.696;9.140;2023-11-19T03:27:21;13.10;58.30
60848;DHT22;46681;47.696;9.140;2023-11-19T03:29:46;13.10;58.40
60848;DHT22;46681;47.696;9.140;2023-11-19T03:32:12;13.10;58.40
60848;DHT22;46681;47.696;9.140;2023-11-19T03:34:37;13.10;58.40
60848;DHT22;46681;47.696;9.140;2023-11-19T03:37:03;13.10;58.50
60848;DHT22;46681;47.696;9.140;2023-11-19T03:39:28;13.10;58.60
60848;DHT22;46681;47.696;9.140;2023-11-19T03:41:54;13.10;58.60
60848;DHT22;46681;47.696;9.140;2023-11-19T03:44:19;13.00;58.70
60848;DHT22;46681;47.696;9.140;2023-11-19T03:46:45;13.00;58.90
60848;DHT22;46681;47.696;9.140;2023-11-19T03:49:11;13.00;59.40
60848;DHT22;46681;47.696;9.140;2023-11-19T03:51:37;13.00;59.00
60848;DHT22;46681;47.696;9.140;2023-11-19T03:54:06;13.00;59.60
60848;DHT22;46681;47.696;9.140;2023-11-19T03:56:31;13.00;59.20
60848;DHT22;46681;47.696;9.140;2023-11-19T03:58:57;13.00;59.30
60848;DHT22;46681;47.696;9.140;2023-11-19T04:01:22;13.00;59.30
60848;DHT22;46681;47.696;9.140;2023-11-19T04:03:51;13.00;59.40
60848;DHT22;46681;47.696;9.140;2023-11-19T04:06:16;13.00;59.60
60848;DHT22;46681;47.696;9.140;2023-11-19T04:08:42;12.90;59.60
60848;DHT22;46681;47.696;9.140;2023-11-19T04:11:07;12.90;59.60
60848;DHT22;46681;47.696;9.140;2023-11-19T04:13:33;13.00;59.70
60848;DHT22;46681;47.696;9.140;2023-11-19T04:15:58;12.90;59.80
60848;DHT22;46681;47.696;9.140;2023-11-19T04:18:25;13.00;59.80
60848;DHT22;46681;47.696;9.140;2023-11-19T04:20:51;13.00;59.80
60848;DHT22;46681;47.696;9.140;2023-11-19T04:23:17;13.00;59.80
60848;DHT22;46681;47.696;9.140;2023-11-19T04:25:42;13.00;59.80
60848;DHT22;46681;47.696;9.140;2023-11-19T04:28:08;13.00;59.70
60848;DHT22;46681;47.696;9.140;2023-11-19T04:30:33;13.10;59.70
60848;DHT22;46681;47.696;9.140;2023-11-19T04:33:00;13.10;59.80
60848;DHT22;46681;47.696;9.140;2023-11-19T04:35:26;13.10;59.70
60848;DHT22;46681;47.696;9.140;2023-11-19T04:37:51;13.10;59.80
60848;DHT22;46681;47.696;9.140;2023-11-19T04:40:17;13.10;59.80
60848;DHT22;46681;47.696;9.140;2023-11-19T04:42:42;13.10;59.80
60848;DHT22;46681;47.696;9.140;2023-11-19T04:45:08;13.00;60.30
60848;DHT22;46681;47.696;9.140;2023-11-19T04:47:34;13.10;59.90
60848;DHT22;46681;47.696;9.140;2023-11-19T04:50:00;13.10;59.80
60848;DHT22;46681;47.696;9.140;2023-11-19T04:52:30;13.10;59.80
60848;DHT22;46681;47.696;9.140;2023-11-19T04:54:55;13.10;59.70
60848;DHT22;46681;47.696;9.140;2023-11-19T04:57:21;13.20;60.20
60848;DHT22;46681;47.696;9.140;2023-11-19T04:59:49;13.20;59.80
60848;DHT22;46681;47.696;9.140;2023-11-19T05:02:14;13.20;59.80
60848;DHT22;46681;47.696;9.140;2023-11-19T05:04:43;13.20;59.70
60848;DHT22;46681;47.696;9.140;2023-11-19T05:07:08;13.20;59.80
60848;DHT22;46681;47.696;9.140;2023-11-19T05:09:34;13.20;59.80
60848;DHT22;46681;47.696;9.140;2023-11-19T05:11:59;13.20;59.80
60848;DHT22;46681;47.696;9.140;2023-11-19T05:14:25;13.20;59.80
60848;DHT22;46681;47.696;9.140;2023-11-19T05:16:50;13.30;60.20
60848;DHT22;46681;47.696;9.140;2023-11-19T05:19:16;13.30;59.70
60848;DHT22;46681;47.696;9.140;2023-11-19T05:21:42;13.40;59.60
60848;DHT22;46681;47.696;9.140;2023-11-19T05:24:08;13.40;59.40
60848;DHT22;46681;47.696;9.140;2023-11-19T05:26:33;13.50;59.40
60848;DHT22;46681;47.696;9.140;2023-11-19T05:29:02;13.60;59.30
60848;DHT22;46681;47.696;9.140;2023-11-19T05:31:27;13.60;59.20
60848;DHT22;46681;47.696;9.140;2023-11-19T05:33:53;13.70;59.20
60848;DHT22;46681;47.696;9.140;2023-11-19T05:36:18;13.70;59.40
60848;DHT22;46681;47.696;9.140;2023-11-19T05:38:43;13.80;58.90
60848;DHT22;46681;47.696;9.140;2023-11-19T05:41:09;13.80;58.80
60848;DHT22;46681;47.696;9.140;2023-11-19T05:43:34;13.80;58.60
60848;DHT22;46681;47.696;9.140;2023-11-19T05:46:02;13.90;58.70
60848;DHT22;46681;47.696;9.140;2023-11-19T05:48:27;13.90;58.60
60848;DHT22;46681;47.696;9.140;2023-11-19T05:51:00;13.90;58.50
60848;DHT22;46681;47.696;9.140;2023-11-19T05:53:25;14.00;58.50
60848;DHT22;46681;47.696;9.140;2023-11-19T05:55:51;14.00;58.60
60848;DHT22;46681;47.696;9.140;2023-11-19T05:58:16;14.00;58.50
60848;DHT22;46681;47.696;9.140;2023-11-19T06:00:43;14.00;58.50
60848;DHT22;46681;47.696;9.140;2023-11-19T06:03:15;14.00;58.50
60848;DHT22;46681;47.696;9.140;2023-11-19T06:05:41;14.00;58.60
60848;DHT22;46681;47.696;9.140;2023-11-19T06:08:06;14.00;58.70
60848;DHT22;46681;47.696;9.140;2023-11-19T06:10:32;14.00;58.70
60848;DHT22;46681;47.696;9.140;2023-11-19T06:13:01;14.00;59.10
60848;DHT22;46681;47.696;9.140;2023-11-19T06:15:28;13.90;58.80
60848;DHT22;46681;47.696;9.140;2023-11-19T06:17:54;13.90;59.40
60848;DHT22;46681;47.696;9.140;2023-11-19T06:20:19;13.90;59.40
60848;DHT22;46681;47.696;9.140;2023-11-19T06:22:45;13.80;59.40
60848;DHT22;46681;47.696;9.140;2023-11-19T06:25:11;13.80;59.50
60848;DHT22;46681;47.696;9.140;2023-11-19T06:27:37;13.90;60.00
60848;DHT22;46681;47.696;9.140;2023-11-19T06:30:02;13.80;59.50
60848;DHT22;46681;47.696;9.140;2023-11-19T06:32:28;13.80;59.60
60848;DHT22;46681;47.696;9.140;2023-11-19T06:34:56;13.80;59.80
60848;DHT22;46681;47.696;9.140;2023-11-19T06:37:22;13.80;59.80
60848;DHT22;46681;47.696;9.140;2023-11-19T06:39:47;13.80;60.00
60848;DHT22;46681;47.696;9.140;2023-11-19T06:42:13;13.70;60.00
60848;DHT22;46681;47.696;9.140;2023-11-19T06:44:38;13.70;60.10
60848;DHT22;46681;47.696;9.140;2023-11-19T06:47:04;13.70;60.30
60848;DHT22;46681;47.696;9.140;2023-11-19T06:49:31;13.70;60.30
60848;DHT22;46681;47.696;9.140;2023-11-19T06:52:00;13.70;60.50
60848;DHT22;46681;47.696;9.140;2023-11-19T06:54:25;13.70;60.50
60848;DHT22;46681;47.696;9.140;2023-11-19T06:56:51;13.70;60.70
60848;DHT22;46681;47.696;9.140;2023-11-19T06:59:18;13.60;60.60
60848;DHT22;46681;47.696;9.140;2023-11-19T07:01:43;13.60;60.80
60848;DHT22;46681;47.696;9.140;2023-11-19T07:04:13;13.60;60.80
60848;DHT22;46681;47.696;9.140;2023-11-19T07:06:39;13.60;61.00
60848;DHT22;46681;47.696;9.140;2023-11-19T07:09:04;13.60;61.10
60848;DHT22;46681;47.696;9.140;2023-11-19T07:11:31;13.60;61.30
60848;DHT22;46681;47.696;9.140;2023-11-19T07:14:02;13.60;61.30
60848;DHT22;46681;47.696;9.140;2023-11-19T07:16:28;13.60;61.30
60848;DHT22;46681;47.696;9.140;2023-11-19T07:18:53;13.60;63.70
60848;DHT22;46681;47.696;9.140;2023-11-19T07:21:19;13.80;69.40
60848;DHT22;46681;47.696;9.140;2023-11-19T07:23:44;13.80;67.00
60848;DHT22;46681;47.696;9.140;2023-11-19T07:26:11;13.80;66.00
60848;DHT22;46681;47.696;9.140;2023-11-19T07:28:37;13.80;65.50
60848;DHT22;46681;47.696;9.140;2023-11-19T07:31:03;13.80;65.30
60848;DHT22;46681;47.696;9.140;2023-11-19T07:33:32;13.80;65.00
60848;DHT22;46681;47.696;9.140;2023-11-19T07:35:58;13.80;64.90
60848;DHT22;46681;47.696;9.140;2023-11-19T07:38:23;13.80;64.70
60848;DHT22;46681;47.696;9.140;2023-11-19T07:40:49;13.80;64.60
60848;DHT22;46681;47.696;9.140;2023-11-19T07:43:14;13.80;64.50
60848;DHT22;46681;47.696;9.140;2023-11-19T07:45:40;13.80;64.50
60848;DHT22;46681;47.696;9.140;2023-11-19T07:48:06;13.80;64.40
60848;DHT22;46681;47.696;9.140;2023-11-19T07:50:32;13.80;64.50
60848;DHT22;46681;47.696;9.140;2023-11-19T07:53:05;13.70;64.60
60848;DHT22;46681;47.696;9.140;2023-11-19T07:55:31;13.70;64.70
60848;DHT22;46681;47.696;9.140;2023-11-19T07:57:56;13.80;64.80
60848;DHT22;46681;47.696;9.140;2023-11-19T08:00:25;13.80;64.80
60848;DHT22;46681;47.696;9.140;2023-11-19T08:02:50;13.80;64.90
60848;DHT22;46681;47.696;9.140;2023-11-19T08:05:16;13.80;64.90
60848;DHT22;46681;47.696;9.140;2023-11-19T08:07:41;13.80;64.90
60848;DHT22;46681;47.696;9.140;2023-11-19T08:10:08;13.80;64.90
60848;DHT22;46681;47.696;9.140;2023-11-19T08:12:33;13.80;64.90
60848;DHT22;46681;47.696;9.140;2023-11-19T08:15:07;13.80;64.90
60848;DHT22;46681;47.696;9.140;2023-11-19T08:17:32;13.90;65.00
60848;DHT22;46681;47.696;9.140;2023-11-19T08:19:58;13.90;65.00
60848;DHT22;46681;47.696;9.140;2023-11-19T08:22:23;13.90;64.90
60848;DHT22;46681;47.696;9.140;2023-11-19T08:24:56;13.90;65.00
60848;DHT22;46681;47.696;9.140;2023-11-19T08:27:28;13.90;65.00
60848;DHT22;46681;47.696;9.140;2023-11-19T08:29:57;13.90;65.00
60848;DHT22;46681;47.696;9.140;2023-11-19T08:32:27;14.00;65.10
60848;DHT22;46681;47.696;9.140;2023-11-19T08:34:59;14.00;65.00
60848;DHT22;46681;47.696;9.140;2023-11-19T08:37:30;14.00;65.00
60848;DHT22;46681;47.696;9.140;2023-11-19T08:39:58;14.00;65.10
60848;DHT22;46681;47.696;9.140;2023-11-19T08:42:24;14.00;65.10
60848;DHT22;46681;47.696;9.140;2023-11-19T08:44:50;14.00;65.60
60848;DHT22;46681;47.696;9.140;2023-11-19T08:47:18;14.10;65.20
60848;DHT22;46681;47.696;9.140;2023-11-19T08:49:54;14.10;65.10
60848;DHT22;46681;47.696;9.140;2023-11-19T08:52:20;14.10;65.20
60848;DHT22;46681;47.696;9.140;2023-11-19T08:54:50;14.10;65.30
60848;DHT22;46681;47.696;9.140;2023-11-19T08:57:23;14.10;65.40
60848;DHT22;46681;47.696;9.140;2023-11-19T08:59:49;14.10;66.30
60848;DHT22;46681;47.696;9.140;2023-11-19T09:02:14;14.10;65.60
60848;DHT22;46681;47.696;9.140;2023-11-19T09:04:47;14.10;65.50
60848;DHT22;46681;47.696;9.140;2023-11-19T09:07:12;14.10;65.60
60848;DHT22;46681;47.696;9.140;2023-11-19T09:09:40;14.20;65.80
60848;DHT22;46681;47.696;9.140;2023-11-19T09:12:10;14.20;66.00
60848;DHT22;46681;47.696;9.140;2023-11-19T09:14:38;14.20;66.00
60848;DHT22;46681;47.696;9.140;2023-11-19T09:17:04;14.20;66.10
60848;DHT22;46681;47.696;9.140;2023-11-19T09:19:32;14.20;66.10
60848;DHT22;46681;47.696;9.140;2023-11-19T09:22:23;14.20;66.40
60848;DHT22;46681;47.696;9.140;2023-11-19T09:24:50;14.20;66.40
60848;DHT22;46681;47.696;9.140;2023-11-19T09:27:16;14.20;66.80
60848;DHT22;46681;47.696;9.140;2023-11-19T09:29:42;14.20;67.00
60848;DHT22;46681;47.696;9.140;2023-11-19T09:32:08;14.20;67.10
60848;DHT22;46681;47.696;9.140;2023-11-19T09:34:34;14.20;67.30
60848;DHT22;46681;47.696;9.140;2023-11-19T09:37:02;14.10;67.30
60848;DHT22;46681;47.696;9.140;2023-11-19T09:39:30;14.20;67.40
60848;DHT22;46681;47.696;9.140;2023-11-19T09:41:56;14.20;68.00
60848;DHT22;46681;47.696;9.140;2023-11-19T09:44:22;14.20;67.90
60848;DHT22;46681;47.696;9.140;2023-11-19T09:46:49;14.20;68.00
60848;DHT22;46681;47.696;9.140;2023-11-19T09:49:21;14.20;68.20
60848;DHT22;46681;47.696;9.140;2023-11-19T09:51:51;14.20;68.40
60848;DHT22;46681;47.696;9.140;2023-11-19T09:54:18;14.20;68.50
60848;DHT22;46681;47.696;9.140;2023-11-19T09:56:50;14.20;68.60
60848;DHT22;46681;47.696;9.140;2023-11-19T09:59:19;14.20;68.90
60848;DHT22;46681;47.696;9.140;2023-11-19T10:01:48;14.20;69.20
60848;DHT22;46681;47.696;9.140;2023-11-19T10:04:15;14.20;69.70
60848;DHT22;46681;47.696;9.140;2023-11-19T10:06:47;14.20;69.60
60848;DHT22;46681;47.696;9.140;2023-11-19T10:09:16;14.20;70.00
60848;DHT22;46681;47.696;9.140;2023-11-19T10:11:42;14.20;69.80
60848;DHT22;46681;47.696;9.140;2023-11-19T10:14:13;14.30;70.00
60848;DHT22;46681;47.696;9.140;2023-11-19T10:16:51;14.30;69.90
60848;DHT22;46681;47.696;9.140;2023-11-19T10:19:33;14.40;69.80
60848;DHT22;46681;47.696;9.140;2023-11-19T10:22:08;14.50;70.70
60848;DHT22;46681;47.696;9.140;2023-11-19T10:24:34;14.70;70.70
60848;DHT22;46681;47.696;9.140;2023-11-19T10:27:02;14.80;72.60
60848;DHT22;46681;47.696;9.140;2023-11-19T10:29:39;15.10;72.90
60848;DHT22;46681;47.696;9.140;2023-11-19T10:32:09;15.20;71.80
60848;DHT22;46681;47.696;9.140;2023-11-19T10:34:35;15.30;71.80
60848;DHT22;46681;47.696;9.140;2023-11-19T10:37:04;15.30;70.90
60848;DHT22;46681;47.696;9.140;2023-11-19T10:39:54;15.30;71.20
60848;DHT22;46681;47.696;9.140;2023-11-19T10:42:23;15.30;70.70
60848;DHT22;46681;47.696;9.140;2023-11-19T10:44:49;15.30;69.70
60848;DHT22;46681;47.696;9.140;2023-11-19T10:47:14;15.40;71.20
60848;DHT22;46681;47.696;9.140;2023-11-19T10:49:45;15.40;71.00
60848;DHT22;46681;47.696;9.140;2023-11-19T10:52:12;15.40;69.50
60848;DHT22;46681;47.696;9.140;2023-11-19T10:54:49;15.40;69.60
60848;DHT22;46681;47.696;9.140;2023-11-19T10:57:24;15.40;69.70
60848;DHT22;46681;47.696;9.140;2023-11-19T11:00:12;15.40;69.70
60848;DHT22;46681;47.696;9.140;2023-11-19T11:02:45;15.30;69.50
60848;DHT22;46681;47.696;9.140;2023-11-19T11:05:14;15.30;69.40
60848;DHT22;46681;47.696;9.140;2023-11-19T11:07:48;15.30;69.60
60848;DHT22;46681;47.696;9.140;2023-11-19T11:10:16;15.30;70.00
60848;DHT22;46681;47.696;9.140;2023-11-19T11:12:43;15.40;71.30
60848;DHT22;46681;47.696;9.140;2023-11-19T11:15:15;15.50;72.70
60848;DHT22;46681;47.696;9.140;2023-11-19T11:18:01;15.50;71.80
60848;DHT22;46681;47.696;9.140;2023-11-19T11:20:31;15.60;72.40
60848;DHT22;46681;47.696;9.140;2023-11-19T11:23:36;15.60;73.10
60848;DHT22;46681;47.696;9.140;2023-11-19T11:26:21;15.80;72.20
60848;DHT22;46681;47.696;9.140;2023-11-19T11:35:03;16.50;68.80
60848;DHT22;46681;47.696;9.140;2023-11-19T11:37:49;16.40;67.80
60848;DHT22;46681;47.696;9.140;2023-11-19T11:40:18;16.30;70.10
60848;DHT22;46681;47.696;9.140;2023-11-19T11:42:45;16.30;71.00
60848;DHT22;46681;47.696;9.140;2023-11-19T11:45:16;16.20;71.30
60848;DHT22;46681;47.696;9.140;2023-11-19T11:50:17;16.00;70.50
60848;DHT22;46681;47.696;9.140;2023-11-19T11:55:36;16.00;70.20
60848;DHT22;46681;47.696;9.140;2023-11-19T11:58:26;16.00;70.50
60848;DHT22;46681;47.696;9.140;2023-11-19T12:00:58;15.90;70.60
60848;DHT22;46681;47.696;9.140;2023-11-19T12:03:29;15.80;70.40
60848;DHT22;46681;47.696;9.140;2023-11-19T12:05:57;15.90;71.50
60848;DHT22;46681;47.696;9.140;2023-11-19T12:08:31;15.80;71.30
60848;DHT22;46681;47.696;9.140;2023-11-19T12:11:09;15.90;70.90
60848;DHT22;46681;47.696;9.140;2023-11-19T12:13:57;15.90;70.90
60848;DHT22;46681;47.696;9.140;2023-11-19T12:16:27;15.90;71.10
60848;DHT22;46681;47.696;9.140;2023-11-19T12:19:14;15.90;71.10
60848;DHT22;46681;47.696;9.140;2023-11-19T12:21:45;16.00;70.50
60848;DHT22;46681;47.696;9.140;2023-11-19T12:24:24;16.00;70.70
60848;DHT22;46681;47.696;9.140;2023-11-19T12:26:50;16.00;70.60
60848;DHT22;46681;47.696;9.140;2023-11-19T12:29:18;15.90;70.60
60848;DHT22;46681;47.696;9.140;2023-11-19T12:31:53;15.90;70.70
60848;DHT22;46681;47.696;9.140;2023-11-19T12:34:19;15.90;70.70
60848;DHT22;46681;47.696;9.140;2023-11-19T12:36:45;15.90;70.70
60848;DHT22;46681;47.696;9.140;2023-11-19T12:39:19;15.80;71.20
60848;DHT22;46681;47.696;9.140;2023-11-19T12:42:00;15.80;71.00
60848;DHT22;46681;47.696;9.140;2023-11-19T12:44:26;15.80;71.00
60848;DHT22;46681;47.696;9.140;2023-11-19T12:47:05;15.80;71.10
60848;DHT22;46681;47.696;9.140;2023-11-19T12:49:33;15.70;71.20
60848;DHT22;46681;47.696;9.140;2023-11-19T12:51:59;15.70;71.40
60848;DHT22;46681;47.696;9.140;2023-11-19T12:54:37;15.70;71.50
60848;DHT22;46681;47.696;9.140;2023-11-19T12:57:04;15.60;71.60
60848;DHT22;46681;47.696;9.140;2023-11-19T12:59:29;15.60;71.50
60848;DHT22;46681;47.696;9.140;2023-11-19T13:01:56;15.60;71.80
60848;DHT22;46681;47.696;9.140;2023-11-19T13:04:29;15.60;71.60
60848;DHT22;46681;47.696;9.140;2023-11-19T13:07:05;15.50;71.60
60848;DHT22;46681;47.696;9.140;2023-11-19T13:09:31;15.50;71.90
60848;DHT22;46681;47.696;9.140;2023-11-19T13:11:56;15.60;71.60
60848;DHT22;46681;47.696;9.140;2023-11-19T13:14:36;15.70;71.00
60848;DHT22;46681;47.696;9.140;2023-11-19T13:17:02;16.00;68.60
60848;DHT22;46681;47.696;9.140;2023-11-19T13:19:43;16.20;69.50
60848;DHT22;46681;47.696;9.140;2023-11-19T13:22:08;16.30;69.50
60848;DHT22;46681;47.696;9.140;2023-11-19T13:24:35;16.30;69.10
60848;DHT22;46681;47.696;9.140;2023-11-19T13:27:04;16.20;69.00
60848;DHT22;46681;47.696;9.140;2023-11-19T13:29:32;16.20;69.10
60848;DHT22;46681;47.696;9.140;2023-11-19T13:35:04;16.30;70.70
60848;DHT22;46681;47.696;9.140;2023-11-19T13:37:33;16.20;70.30
60848;DHT22;46681;47.696;9.140;2023-11-19T13:40:02;16.20;70.40
60848;DHT22;46681;47.696;9.140;2023-11-19T13:42:33;16.20;70.00
60848;DHT22;46681;47.696;9.140;2023-11-19T13:45:00;16.20;70.20
60848;DHT22;46681;47.696;9.140;2023-11-19T13:47:35;16.10;70.10
60848;DHT22;46681;47.696;9.140;2023-11-19T13:50:18;16.10;70.10
60848;DHT22;46681;47.696;9.140;2023-11-19T13:53:06;16.10;70.30
60848;DHT22;46681;47.696;9.140;2023-11-19T13:55:37;16.00;70.30
60848;DHT22;46681;47.696;9.140;2023-11-19T13:58:04;16.00;70.60
60848;DHT22;46681;47.696;9.140;2023-11-19T14:00:30;16.00;70.60
60848;DHT22;46681;47.696;9.140;2023-11-19T14:03:05;16.20;71.10
60848;DHT22;46681;47.696;9.140;2023-11-19T14:05:31;16.40;71.10
60848;DHT22;46681;47.696;9.140;2023-11-19T14:08:08;16.50;70.70
60848;DHT22;46681;47.696;9.140;2023-11-19T14:10:34;16.60;69.80
60848;DHT22;46681;47.696;9.140;2023-11-19T14:13:03;16.70;69.00
60848;DHT22;46681;47.696;9.140;2023-11-19T14:15:29;16.70;68.80
60848;DHT22;46681;47.696;9.140;2023-11-19T14:17:58;16.80;68.60
60848;DHT22;46681;47.696;9.140;2023-11-19T14:20:31;16.80;68.30
60848;DHT22;46681;47.696;9.140;2023-11-19T14:23:02;16.70;68.30
60848;DHT22;46681;47.696;9.140;2023-11-19T14:25:31;16.60;68.70
60848;DHT22;46681;47.696;9.140;2023-11-19T14:27:58;16.50;68.90
60848;DHT22;46681;47.696;9.140;2023-11-19T14:30:32;16.50;69.20
60848;DHT22;46681;47.696;9.140;2023-11-19T14:33:03;16.40;69.20
60848;DHT22;46681;47.696;9.140;2023-11-19T14:35:40;16.30;69.70
60848;DHT22;46681;47.696;9.140;2023-11-19T14:38:14;16.30;69.60
60848;DHT22;46681;47.696;9.140;2023-11-19T14:40:44;16.20;69.30
60848;DHT22;46681;47.696;9.140;2023-11-19T14:43:10;16.20;69.60
60848;DHT22;46681;47.696;9.140;2023-11-19T14:45:36;16.10;69.80
60848;DHT22;46681;47.696;9.140;2023-11-19T14:48:10;16.10;69.90
60848;DHT22;46681;47.696;9.140;2023-11-19T14:50:37;16.10;69.90
60848;DHT22;46681;47.696;9.140;2023-11-19T14:53:02;16.10;69.70
60848;DHT22;46681;47.696;9.140;2023-11-19T14:55:37;16.00;70.10
60848;DHT22;46681;47.696;9.140;2023-11-19T14:58:07;16.00;70.20
60848;DHT22;46681;47.696;9.140;2023-11-19T15:00:40;15.90;70.20
60848;DHT22;46681;47.696;9.140;2023-11-19T15:03:06;15.80;70.50
60848;DHT22;46681;47.696;9.140;2023-11-19T15:05:40;15.80;70.60
60848;DHT22;46681;47.696;9.140;2023-11-19T15:08:09;15.70;70.80
60848;DHT22;46681;47.696;9.140;2023-11-19T15:10:35;15.70;71.10
60848;DHT22;46681;47.696;9.140;2023-11-19T15:13:08;15.60;71.20
60848;DHT22;46681;47.696;9.140;2023-11-19T15:15:40;15.60;71.20
60848;DHT22;46681;47.696;9.140;2023-11-19T15:18:10;15.50;71.30
60848;DHT22;46681;47.696;9.140;2023-11-19T15:20:38;15.50;71.40
60848;DHT22;46681;47.696;9.140;2023-11-19T15:23:10;15.40;71.50
60848;DHT22;46681;47.696;9.140;2023-11-19T15:25:36;15.40;71.50
60848;DHT22;46681;47.696;9.140;2023-11-19T15:28:01;15.30;71.60
60848;DHT22;46681;47.696;9.140;2023-11-19T15:30:36;15.30;71.70
60848;DHT22;46681;47.696;9.140;2023-11-19T15:33:04;15.20;71.70
60848;DHT22;46681;47.696;9.140;2023-11-19T15:35:49;15.20;71.80
60848;DHT22;46681;47.696;9.140;2023-11-19T15:38:15;15.10;71.90
60848;DHT22;46681;47.696;9.140;2023-11-19T15:40:50;15.10;72.10
60848;DHT22;46681;47.696;9.140;2023-11-19T15:43:16;15.00;72.00
60848;DHT22;46681;47.696;9.140;2023-11-19T15:45:44;15.00;72.20
60848;DHT22;46681;47.696;9.140;2023-11-19T15:48:09;15.00;72.50
60848;DHT22;46681;47.696;9.140;2023-11-19T15:50:39;14.90;72.40
60848;DHT22;46681;47.696;9.140;2023-11-19T15:53:17;14.90;72.50
60848;DHT22;46681;47.696;9.140;2023-11-19T15:55:46;14.90;72.70